createdAt,value
2019-03-10T00:00:48.213Z,1003.31
2019-03-10T00:01:53.725Z,1003.34
2019-03-10T00:02:59.248Z,1003.37
2019-03-10T00:04:04.740Z,1003.38
2019-03-10T00:05:10.259Z,1003.46
2019-03-10T00:06:15.756Z,1003.41
2019-03-10T00:07:21.271Z,1003.44
2019-03-10T00:08:26.781Z,1003.48
2019-03-10T00:09:32.298Z,1003.46
2019-03-10T00:10:37.815Z,1003.52
2019-03-10T00:11:43.306Z,1003.51
2019-03-10T00:12:48.815Z,1003.49
2019-03-10T00:13:54.325Z,1003.54
2019-03-10T00:14:59.840Z,1003.51
2019-03-10T00:16:05.348Z,1003.52
2019-03-10T00:17:10.852Z,1003.50
2019-03-10T00:18:16.363Z,1003.43
2019-03-10T00:19:21.879Z,1003.37
2019-03-10T00:20:27.378Z,1003.30
2019-03-10T00:21:32.887Z,1003.27
2019-03-10T00:22:38.395Z,1003.23
2019-03-10T00:23:43.906Z,1003.16
2019-03-10T00:24:49.418Z,1003.12
2019-03-10T00:25:54.955Z,1003.10
2019-03-10T00:27:00.445Z,1003.05
2019-03-10T00:28:05.962Z,1003.10
2019-03-10T00:29:11.458Z,1003.12
2019-03-10T00:30:16.964Z,1003.12
2019-03-10T00:31:22.473Z,1003.10
2019-03-10T00:32:27.980Z,1003.11
2019-03-10T00:33:33.495Z,1003.06
2019-03-10T00:34:39.000Z,1003.04
2019-03-10T00:35:44.506Z,1003.03
2019-03-10T00:36:50.019Z,1003.02
2019-03-10T00:37:55.528Z,1002.99
2019-03-10T00:39:01.037Z,1002.97
2019-03-10T00:40:06.549Z,1002.98
2019-03-10T00:41:12.060Z,1002.99
2019-03-10T00:42:17.562Z,1002.94
2019-03-10T00:43:23.071Z,1002.93
2019-03-10T00:44:28.583Z,1002.92
2019-03-10T00:45:34.091Z,1002.89
2019-03-10T00:46:39.600Z,1002.87
2019-03-10T00:47:45.114Z,1002.91
2019-03-10T00:48:50.630Z,1002.90
2019-03-10T00:49:56.128Z,1002.91
2019-03-10T00:51:01.646Z,1002.93
2019-03-10T00:52:07.155Z,1002.95
2019-03-10T00:53:12.660Z,1003.00
2019-03-10T00:54:18.168Z,1002.98
2019-03-10T00:55:23.679Z,1002.98
2019-03-10T00:56:29.194Z,1002.95
2019-03-10T00:57:34.697Z,1002.89
2019-03-10T00:58:40.203Z,1002.88
2019-03-10T00:59:45.709Z,1002.92
2019-03-10T01:00:51.225Z,1002.91
2019-03-10T01:01:56.733Z,1002.88
2019-03-10T01:03:02.238Z,1002.94
2019-03-10T01:04:07.755Z,1002.94
2019-03-10T01:05:13.258Z,1002.88
2019-03-10T01:06:18.775Z,1002.88
2019-03-10T01:07:24.280Z,1002.86
2019-03-10T01:08:29.790Z,1002.89
2019-03-10T01:09:35.295Z,1002.85
2019-03-10T01:10:40.821Z,1002.88
2019-03-10T01:11:46.314Z,1002.81
2019-03-10T01:12:51.829Z,1002.75
2019-03-10T01:13:57.331Z,1002.76
2019-03-10T01:15:02.848Z,1002.76
2019-03-10T01:16:08.353Z,1002.76
2019-03-10T01:17:13.863Z,1002.73
2019-03-10T01:18:19.371Z,1002.70
2019-03-10T01:19:24.880Z,1002.70
2019-03-10T01:20:30.390Z,1002.67
2019-03-10T01:21:35.901Z,1002.67
2019-03-10T01:22:41.416Z,1002.59
2019-03-10T01:23:46.919Z,1002.58
2019-03-10T01:24:52.426Z,1002.55
2019-03-10T01:25:57.936Z,1002.53
2019-03-10T01:27:03.445Z,1002.47
2019-03-10T01:28:08.958Z,1002.46
2019-03-10T01:29:14.471Z,1002.40
2019-03-10T01:30:19.980Z,1002.32
2019-03-10T01:31:25.479Z,1002.26
2019-03-10T01:32:30.991Z,1002.25
2019-03-10T01:33:36.503Z,1002.20
2019-03-10T01:34:42.008Z,1002.21
2019-03-10T01:35:47.515Z,1002.16
2019-03-10T01:36:53.027Z,1002.14
2019-03-10T01:37:58.549Z,1002.12
2019-03-10T01:39:04.045Z,1002.11
2019-03-10T01:40:09.557Z,1002.05
2019-03-10T01:41:15.064Z,1002.06
2019-03-10T01:42:20.574Z,1001.99
2019-03-10T01:43:26.080Z,1002.00
2019-03-10T01:44:31.596Z,1001.97
2019-03-10T01:45:37.100Z,1002.03
2019-03-10T01:46:42.618Z,1001.97
2019-03-10T01:47:48.135Z,1002.00
2019-03-10T01:48:53.626Z,1002.00
2019-03-10T01:49:59.139Z,1001.96
2019-03-10T01:51:04.649Z,1001.88
2019-03-10T01:52:10.158Z,1001.83
2019-03-10T01:53:25.018Z,1001.73
2019-03-10T01:54:21.264Z,1001.69
2019-03-10T01:55:26.687Z,1001.74
2019-03-10T01:56:32.194Z,1001.71
2019-03-10T01:57:37.706Z,1001.64
2019-03-10T01:58:43.212Z,1001.63
2019-03-10T01:59:48.722Z,1001.62
2019-03-10T02:00:54.231Z,1001.61
2019-03-10T02:01:59.743Z,1001.57
2019-03-10T02:03:05.254Z,1001.52
2019-03-10T02:04:10.750Z,1001.50
2019-03-10T02:05:16.286Z,1001.47
2019-03-10T02:06:21.776Z,1001.40
2019-03-10T02:07:27.290Z,1001.41
2019-03-10T02:08:32.796Z,1001.33
2019-03-10T02:09:38.308Z,1001.27
2019-03-10T02:10:43.814Z,1001.25
2019-03-10T02:11:49.319Z,1001.21
2019-03-10T02:12:54.833Z,1001.18
2019-03-10T02:14:00.343Z,1001.17
2019-03-10T02:15:05.852Z,1001.16
2019-03-10T02:16:11.360Z,1001.18
2019-03-10T02:17:16.870Z,1001.16
2019-03-10T02:18:22.377Z,1001.08
2019-03-10T02:19:27.890Z,1001.04
2019-03-10T02:20:33.396Z,1001.02
2019-03-10T02:21:38.908Z,1000.99
2019-03-10T02:22:44.413Z,1000.96
2019-03-10T02:23:49.924Z,1000.93
2019-03-10T02:24:55.436Z,1000.89
2019-03-10T02:26:00.942Z,1000.93
2019-03-10T02:27:06.454Z,1000.90
2019-03-10T02:28:11.965Z,1000.94
2019-03-10T02:29:17.471Z,1000.90
2019-03-10T02:30:22.983Z,1000.87
2019-03-10T02:31:28.492Z,1000.85
2019-03-10T02:32:34.006Z,1000.82
2019-03-10T02:33:39.511Z,1000.76
2019-03-10T02:34:45.019Z,1000.75
2019-03-10T02:35:50.529Z,1000.73
2019-03-10T02:36:56.038Z,1000.70
2019-03-10T02:38:01.550Z,1000.69
2019-03-10T02:39:07.052Z,1000.68
2019-03-10T02:40:12.562Z,1000.67
2019-03-10T02:41:18.113Z,1000.60
2019-03-10T02:42:23.581Z,1000.52
2019-03-10T02:43:29.090Z,1000.51
2019-03-10T02:44:34.601Z,1000.47
2019-03-10T02:45:40.111Z,1000.41
2019-03-10T02:46:45.625Z,1000.37
2019-03-10T02:47:51.133Z,1000.33
2019-03-10T02:48:56.639Z,1000.31
2019-03-10T02:50:02.148Z,1000.30
2019-03-10T02:51:07.653Z,1000.31
2019-03-10T02:52:13.168Z,1000.26
2019-03-10T02:53:18.674Z,1000.22
2019-03-10T02:54:24.189Z,1000.23
2019-03-10T02:55:29.694Z,1000.14
2019-03-10T02:56:35.228Z,1000.20
2019-03-10T02:57:40.722Z,1000.18
2019-03-10T02:58:46.222Z,1000.13
2019-03-10T02:59:51.738Z,1000.11
2019-03-10T03:00:57.239Z,1000.05
2019-03-10T03:02:02.749Z,1000.07
2019-03-10T03:03:08.264Z,1000.11
2019-03-10T03:04:13.769Z,1000.02
2019-03-10T03:05:19.277Z,1000.01
2019-03-10T03:06:24.786Z,999.99
2019-03-10T03:07:30.294Z,1000.02
2019-03-10T03:08:35.836Z,999.96
2019-03-10T03:09:41.312Z,999.97
2019-03-10T03:10:46.830Z,999.97
2019-03-10T03:11:52.336Z,999.95
2019-03-10T03:12:57.853Z,999.95
2019-03-10T03:14:03.352Z,999.87
2019-03-10T03:15:08.867Z,999.86
2019-03-10T03:16:14.368Z,999.81
2019-03-10T03:17:19.879Z,999.85
2019-03-10T03:18:25.391Z,999.80
2019-03-10T03:19:30.899Z,999.75
2019-03-10T03:20:36.419Z,999.78
2019-03-10T03:21:43.680Z,999.72
2019-03-10T03:22:47.432Z,999.68
2019-03-10T03:23:53.009Z,999.63
2019-03-10T03:24:58.447Z,999.64
2019-03-10T03:26:04.102Z,999.66
2019-03-10T03:27:09.460Z,999.67
2019-03-10T03:28:14.973Z,999.61
2019-03-10T03:29:20.496Z,999.59
2019-03-10T03:30:26.005Z,999.53
2019-03-10T03:31:31.501Z,999.49
2019-03-10T03:32:37.011Z,999.45
2019-03-10T03:33:42.521Z,999.46
2019-03-10T03:34:48.033Z,999.41
2019-03-10T03:35:53.543Z,999.37
2019-03-10T03:36:59.038Z,999.38
2019-03-10T03:38:04.565Z,999.31
2019-03-10T03:39:10.066Z,999.27
2019-03-10T03:40:15.576Z,999.22
2019-03-10T03:41:21.086Z,999.21
2019-03-10T03:42:26.594Z,999.18
2019-03-10T03:43:32.098Z,999.14
2019-03-10T03:44:37.612Z,999.08
2019-03-10T03:45:43.122Z,999.12
2019-03-10T03:46:48.643Z,999.10
2019-03-10T03:47:54.146Z,999.12
2019-03-10T03:48:59.646Z,999.08
2019-03-10T03:50:05.171Z,999.07
2019-03-10T03:51:10.663Z,999.01
2019-03-10T03:52:16.177Z,998.98
2019-03-10T03:53:21.689Z,998.97
2019-03-10T03:54:27.201Z,999.00
2019-03-10T03:55:32.701Z,998.95
2019-03-10T03:56:38.222Z,998.89
2019-03-10T03:57:43.723Z,998.87
2019-03-10T03:58:49.226Z,998.87
2019-03-10T03:59:54.739Z,998.83
2019-03-10T04:01:00.249Z,998.75
2019-03-10T04:02:05.755Z,998.76
2019-03-10T04:03:11.267Z,998.71
2019-03-10T04:04:16.782Z,998.64
2019-03-10T04:05:22.286Z,998.68
2019-03-10T04:06:27.801Z,998.63
2019-03-10T04:07:33.307Z,998.63
2019-03-10T04:08:38.808Z,998.57
2019-03-10T04:09:44.323Z,998.53
2019-03-10T04:10:49.828Z,998.56
2019-03-10T04:11:55.339Z,998.51
2019-03-10T04:13:00.857Z,998.49
2019-03-10T04:14:06.355Z,998.42
2019-03-10T04:15:11.942Z,998.37
2019-03-10T04:16:17.400Z,998.38
2019-03-10T04:17:22.889Z,998.32
2019-03-10T04:18:28.403Z,998.34
2019-03-10T04:19:33.904Z,998.25
2019-03-10T04:20:39.410Z,998.28
2019-03-10T04:21:44.942Z,998.23
2019-03-10T04:22:50.427Z,998.20
2019-03-10T04:23:55.938Z,998.21
2019-03-10T04:25:01.448Z,998.19
2019-03-10T04:26:06.965Z,998.16
2019-03-10T04:27:12.466Z,998.13
2019-03-10T04:28:18.047Z,998.08
2019-03-10T04:29:23.481Z,998.01
2019-03-10T04:30:28.991Z,997.98
2019-03-10T04:31:34.503Z,997.96
2019-03-10T04:32:40.007Z,997.95
2019-03-10T04:33:45.518Z,997.91
2019-03-10T04:34:51.024Z,997.95
2019-03-10T04:35:56.536Z,997.90
2019-03-10T04:37:02.043Z,997.83
2019-03-10T04:38:07.556Z,997.84
2019-03-10T04:39:13.062Z,997.78
2019-03-10T04:40:18.572Z,997.73
2019-03-10T04:41:24.126Z,997.65
2019-03-10T04:42:29.588Z,997.62
2019-03-10T04:43:35.098Z,997.60
2019-03-10T04:44:40.605Z,997.57
2019-03-10T04:45:46.113Z,997.54
2019-03-10T04:46:51.624Z,997.52
2019-03-10T04:47:57.132Z,997.50
2019-03-10T04:49:02.641Z,997.48
2019-03-10T04:50:08.150Z,997.40
2019-03-10T04:51:13.660Z,997.41
2019-03-10T04:52:19.175Z,997.36
2019-03-10T04:53:24.679Z,997.36
2019-03-10T04:54:30.178Z,997.34
2019-03-10T04:55:35.692Z,997.33
2019-03-10T04:56:41.203Z,997.34
2019-03-10T04:57:46.711Z,997.37
2019-03-10T04:58:52.225Z,997.44
2019-03-10T04:59:57.731Z,997.38
2019-03-10T05:01:03.237Z,997.26
2019-03-10T05:02:08.748Z,997.16
2019-03-10T05:03:14.262Z,997.14
2019-03-10T05:04:19.764Z,997.10
2019-03-10T05:05:25.276Z,997.12
2019-03-10T05:06:30.789Z,997.09
2019-03-10T05:07:36.292Z,997.08
2019-03-10T05:08:41.829Z,997.07
2019-03-10T05:09:47.310Z,997.03
2019-03-10T05:10:52.815Z,996.97
2019-03-10T05:11:58.329Z,996.96
2019-03-10T05:13:03.842Z,996.91
2019-03-10T05:14:09.347Z,996.91
2019-03-10T05:15:14.853Z,996.83
2019-03-10T05:16:20.361Z,996.82
2019-03-10T05:17:25.869Z,996.78
2019-03-10T05:18:31.382Z,996.80
2019-03-10T05:19:36.894Z,996.73
2019-03-10T05:20:42.397Z,996.70
2019-03-10T05:21:47.905Z,996.65
2019-03-10T05:22:53.415Z,996.62
2019-03-10T05:23:58.922Z,996.58
2019-03-10T05:25:04.486Z,996.53
2019-03-10T05:26:09.940Z,996.46
2019-03-10T05:27:15.455Z,996.47
2019-03-10T05:28:20.967Z,996.43
2019-03-10T05:29:26.475Z,996.43
2019-03-10T05:30:31.978Z,996.41
2019-03-10T05:31:37.489Z,996.39
2019-03-10T05:32:42.995Z,996.37
2019-03-10T05:33:48.504Z,996.38
2019-03-10T05:34:54.015Z,996.29
2019-03-10T05:35:59.521Z,996.22
2019-03-10T05:37:05.035Z,996.18
2019-03-10T05:38:10.540Z,996.18
2019-03-10T05:39:16.047Z,996.19
2019-03-10T05:40:21.565Z,996.18
2019-03-10T05:41:27.068Z,996.17
2019-03-10T05:42:32.574Z,996.15
2019-03-10T05:43:38.085Z,996.14
2019-03-10T05:44:43.604Z,996.07
2019-03-10T05:45:49.109Z,996.02
2019-03-10T05:46:54.615Z,995.96
2019-03-10T05:48:00.119Z,995.89
2019-03-10T05:49:05.628Z,995.84
2019-03-10T05:50:11.137Z,995.82
2019-03-10T05:51:16.645Z,995.77
2019-03-10T05:52:22.154Z,995.78
2019-03-10T05:53:27.669Z,995.77
2019-03-10T05:54:33.174Z,995.74
2019-03-10T05:55:38.683Z,995.73
2019-03-10T05:56:44.186Z,995.68
2019-03-10T05:57:49.701Z,995.63
2019-03-10T05:58:55.209Z,995.55
2019-03-10T06:00:00.719Z,995.63
2019-03-10T06:01:06.225Z,995.56
2019-03-10T06:02:11.733Z,995.57
2019-03-10T06:03:17.247Z,995.48
2019-03-10T06:04:22.763Z,995.43
2019-03-10T06:05:28.260Z,995.40
2019-03-10T06:06:33.770Z,995.36
2019-03-10T06:07:39.277Z,995.34
2019-03-10T06:08:44.789Z,995.33
2019-03-10T06:09:50.295Z,995.31
2019-03-10T06:10:55.808Z,995.36
2019-03-10T06:12:01.313Z,995.32
2019-03-10T06:13:06.824Z,995.22
2019-03-10T06:14:12.344Z,995.20
2019-03-10T06:15:17.840Z,995.17
2019-03-10T06:16:23.350Z,995.12
2019-03-10T06:17:28.859Z,995.09
2019-03-10T06:18:34.364Z,995.06
2019-03-10T06:19:39.876Z,994.97
2019-03-10T06:20:45.385Z,994.89
2019-03-10T06:21:50.906Z,994.80
2019-03-10T06:22:56.400Z,994.84
2019-03-10T06:24:01.924Z,994.83
2019-03-10T06:25:07.421Z,994.78
2019-03-10T06:26:12.941Z,994.70
2019-03-10T06:27:18.441Z,994.67
2019-03-10T06:28:23.946Z,994.58
2019-03-10T06:29:29.450Z,994.57
2019-03-10T06:30:34.952Z,994.48
2019-03-10T06:31:40.478Z,994.51
2019-03-10T06:32:45.977Z,994.44
2019-03-10T06:33:51.490Z,994.44
2019-03-10T06:34:56.996Z,994.40
2019-03-10T06:36:02.499Z,994.40
2019-03-10T06:37:08.020Z,994.41
2019-03-10T06:38:13.519Z,994.46
2019-03-10T06:39:19.045Z,994.44
2019-03-10T06:40:32.054Z,994.49
2019-03-10T06:41:30.055Z,994.51
2019-03-10T06:42:35.557Z,994.51
2019-03-10T06:43:41.067Z,994.47
2019-03-10T06:44:46.576Z,994.43
2019-03-10T06:45:52.113Z,994.40
2019-03-10T06:46:57.588Z,994.40
2019-03-10T06:48:03.095Z,994.36
2019-03-10T06:49:08.614Z,994.35
2019-03-10T06:50:14.119Z,994.26
2019-03-10T06:51:19.622Z,994.27
2019-03-10T06:52:25.134Z,994.25
2019-03-10T06:53:30.662Z,994.26
2019-03-10T06:54:36.149Z,994.24
2019-03-10T06:55:41.656Z,994.13
2019-03-10T06:56:47.172Z,994.19
2019-03-10T06:57:52.682Z,994.12
2019-03-10T06:58:58.183Z,994.06
2019-03-10T07:00:03.693Z,994.05
2019-03-10T07:01:09.200Z,993.99
2019-03-10T07:02:14.711Z,993.96
2019-03-10T07:03:20.209Z,993.89
2019-03-10T07:04:25.727Z,993.92
2019-03-10T07:05:31.257Z,993.87
2019-03-10T07:06:36.742Z,993.84
2019-03-10T07:07:42.256Z,993.67
2019-03-10T07:08:47.754Z,993.64
2019-03-10T07:09:53.272Z,993.63
2019-03-10T07:10:58.773Z,993.64
2019-03-10T07:12:04.288Z,993.60
2019-03-10T07:13:09.799Z,993.54
2019-03-10T07:14:15.296Z,993.54
2019-03-10T07:15:20.813Z,993.54
2019-03-10T07:16:26.316Z,993.51
2019-03-10T07:17:31.820Z,993.53
2019-03-10T07:18:37.331Z,993.48
2019-03-10T07:19:42.843Z,993.42
2019-03-10T07:20:48.352Z,993.36
2019-03-10T07:21:53.857Z,993.32
2019-03-10T07:22:59.364Z,993.33
2019-03-10T07:24:04.876Z,993.30
2019-03-10T07:25:10.378Z,993.29
2019-03-10T07:26:15.895Z,993.31
2019-03-10T07:27:21.405Z,993.29
2019-03-10T07:28:26.910Z,993.28
2019-03-10T07:29:32.413Z,993.24
2019-03-10T07:30:37.926Z,993.13
2019-03-10T07:31:43.434Z,993.09
2019-03-10T07:32:48.951Z,993.10
2019-03-10T07:33:54.459Z,993.05
2019-03-10T07:34:59.958Z,992.96
2019-03-10T07:36:05.464Z,992.93
2019-03-10T07:37:10.997Z,992.88
2019-03-10T07:38:16.486Z,992.80
2019-03-10T07:39:21.997Z,992.81
2019-03-10T07:40:27.502Z,992.75
2019-03-10T07:41:33.007Z,992.73
2019-03-10T07:42:38.516Z,992.74
2019-03-10T07:43:44.029Z,992.68
2019-03-10T07:44:49.530Z,992.60
2019-03-10T07:45:55.056Z,992.59
2019-03-10T07:47:00.553Z,992.53
2019-03-10T07:48:06.066Z,992.46
2019-03-10T07:49:11.571Z,992.40
2019-03-10T07:50:17.079Z,992.39
2019-03-10T07:51:22.586Z,992.37
2019-03-10T07:52:28.098Z,992.36
2019-03-10T07:53:33.604Z,992.36
2019-03-10T07:54:39.111Z,992.32
2019-03-10T07:55:44.622Z,992.32
2019-03-10T07:56:50.126Z,992.27
2019-03-10T07:57:55.641Z,992.23
2019-03-10T07:59:01.146Z,992.21
2019-03-10T08:00:06.655Z,992.17
2019-03-10T08:01:12.169Z,992.16
2019-03-10T08:02:17.670Z,992.13
2019-03-10T08:03:23.302Z,992.15
2019-03-10T08:04:28.691Z,992.17
2019-03-10T08:05:34.208Z,992.17
2019-03-10T08:06:39.698Z,992.09
2019-03-10T08:07:45.215Z,992.02
2019-03-10T08:08:50.729Z,992.02
2019-03-10T08:09:56.243Z,992.04
2019-03-10T08:11:01.744Z,992.03
2019-03-10T08:12:07.248Z,992.14
2019-03-10T08:13:12.760Z,992.12
2019-03-10T08:14:18.270Z,992.07
2019-03-10T08:15:23.778Z,992.07
2019-03-10T08:16:29.285Z,992.06
2019-03-10T08:17:34.792Z,992.02
2019-03-10T08:18:40.311Z,992.03
2019-03-10T08:19:45.815Z,991.95
2019-03-10T08:20:51.330Z,991.88
2019-03-10T08:21:56.831Z,991.84
2019-03-10T08:23:02.334Z,991.84
2019-03-10T08:24:07.850Z,991.81
2019-03-10T08:25:13.353Z,991.86
2019-03-10T08:26:18.866Z,991.79
2019-03-10T08:27:24.375Z,991.79
2019-03-10T08:28:29.878Z,991.79
2019-03-10T08:29:35.390Z,991.81
2019-03-10T08:30:40.894Z,991.80
2019-03-10T08:31:46.405Z,991.74
2019-03-10T08:32:51.913Z,991.66
2019-03-10T08:33:57.424Z,991.68
2019-03-10T08:35:02.932Z,991.69
2019-03-10T08:36:08.439Z,991.64
2019-03-10T08:37:13.958Z,991.62
2019-03-10T08:38:19.458Z,991.67
2019-03-10T08:39:24.969Z,991.71
2019-03-10T08:40:30.480Z,991.73
2019-03-10T08:41:35.985Z,991.76
2019-03-10T08:42:41.492Z,991.75
2019-03-10T08:43:47.004Z,991.69
2019-03-10T08:44:52.509Z,991.56
2019-03-10T08:45:58.022Z,991.58
2019-03-10T08:47:03.525Z,991.61
2019-03-10T08:48:09.037Z,991.75
2019-03-10T08:49:14.555Z,991.70
2019-03-10T08:50:20.055Z,991.62
2019-03-10T08:51:25.566Z,991.56
2019-03-10T08:52:31.071Z,991.50
2019-03-10T08:53:36.580Z,991.52
2019-03-10T08:54:42.089Z,991.41
2019-03-10T08:55:47.612Z,991.52
2019-03-10T08:56:53.110Z,991.34
2019-03-10T08:57:58.612Z,991.06
2019-03-10T08:59:04.125Z,991.06
2019-03-10T09:00:09.646Z,991.13
2019-03-10T09:01:15.142Z,991.23
2019-03-10T09:02:20.653Z,991.33
2019-03-10T09:03:26.162Z,991.26
2019-03-10T09:04:31.675Z,991.22
2019-03-10T09:05:37.173Z,991.15
2019-03-10T09:06:44.618Z,991.07
2019-03-10T09:07:48.197Z,990.98
2019-03-10T09:08:53.713Z,991.02
2019-03-10T09:09:59.310Z,991.04
2019-03-10T09:11:04.717Z,990.95
2019-03-10T09:12:10.225Z,990.95
2019-03-10T09:13:15.737Z,990.90
2019-03-10T09:14:21.248Z,990.89
2019-03-10T09:15:26.754Z,990.88
2019-03-10T09:16:32.263Z,990.90
2019-03-10T09:17:37.772Z,990.81
2019-03-10T09:18:43.282Z,990.80
2019-03-10T09:19:48.791Z,990.80
2019-03-10T09:20:54.297Z,990.76
2019-03-10T09:22:00.325Z,990.72
2019-03-10T09:23:05.322Z,990.75
2019-03-10T09:24:10.834Z,990.70
2019-03-10T09:25:16.334Z,990.69
2019-03-10T09:26:21.848Z,990.70
2019-03-10T09:27:28.477Z,990.73
2019-03-10T09:28:32.862Z,990.66
2019-03-10T09:29:38.373Z,990.65
2019-03-10T09:30:43.878Z,990.65
2019-03-10T09:31:49.382Z,990.63
2019-03-10T09:32:54.898Z,990.54
2019-03-10T09:34:00.406Z,990.45
2019-03-10T09:35:05.921Z,990.45
2019-03-10T09:36:11.423Z,990.42
2019-03-10T09:37:16.934Z,990.37
2019-03-10T09:38:22.441Z,990.33
2019-03-10T09:39:27.949Z,990.26
2019-03-10T09:40:33.458Z,990.26
2019-03-10T09:41:38.965Z,990.26
2019-03-10T09:42:44.485Z,990.21
2019-03-10T09:43:49.983Z,990.20
2019-03-10T09:44:55.503Z,990.21
2019-03-10T09:46:01.018Z,990.20
2019-03-10T09:47:06.518Z,990.18
2019-03-10T09:48:12.022Z,990.17
2019-03-10T09:49:17.528Z,990.11
2019-03-10T09:50:23.042Z,990.10
2019-03-10T09:51:28.550Z,990.01
2019-03-10T09:52:34.055Z,989.95
2019-03-10T09:53:39.570Z,989.98
2019-03-10T09:54:45.081Z,989.89
2019-03-10T09:55:50.580Z,989.88
2019-03-10T09:56:56.092Z,989.77
2019-03-10T09:58:01.602Z,989.78
2019-03-10T09:59:07.108Z,989.74
2019-03-10T10:00:12.624Z,989.68
2019-03-10T10:01:18.125Z,989.61
2019-03-10T10:02:23.655Z,989.58
2019-03-10T10:03:29.147Z,989.60
2019-03-10T10:04:34.655Z,989.54
2019-03-10T10:05:40.168Z,989.53
2019-03-10T10:06:45.670Z,989.51
2019-03-10T10:07:51.179Z,989.49
2019-03-10T10:08:56.693Z,989.48
2019-03-10T10:10:02.202Z,989.43
2019-03-10T10:11:07.706Z,989.44
2019-03-10T10:12:13.891Z,989.46
2019-03-10T10:13:18.726Z,989.39
2019-03-10T10:14:24.237Z,989.40
2019-03-10T10:15:29.742Z,989.40
2019-03-10T10:16:35.248Z,989.38
2019-03-10T10:17:40.760Z,989.32
2019-03-10T10:18:46.275Z,989.35
2019-03-10T10:19:51.784Z,989.29
2019-03-10T10:20:57.292Z,989.31
2019-03-10T10:22:02.807Z,989.32
2019-03-10T10:23:08.306Z,989.30
2019-03-10T10:24:13.813Z,989.30
2019-03-10T10:25:19.319Z,989.34
2019-03-10T10:26:24.842Z,989.29
2019-03-10T10:27:30.340Z,989.27
2019-03-10T10:28:35.850Z,989.19
2019-03-10T10:29:41.361Z,989.27
2019-03-10T10:30:46.867Z,989.23
2019-03-10T10:31:52.378Z,989.37
2019-03-10T10:32:57.888Z,989.27
2019-03-10T10:34:03.396Z,989.27
2019-03-10T10:35:08.907Z,989.26
2019-03-10T10:36:14.423Z,989.18
2019-03-10T10:37:19.933Z,989.17
2019-03-10T10:38:25.454Z,989.24
2019-03-10T10:39:30.951Z,989.34
2019-03-10T10:40:36.454Z,989.26
2019-03-10T10:41:41.968Z,989.26
2019-03-10T10:42:47.472Z,989.26
2019-03-10T10:43:52.980Z,989.25
2019-03-10T10:44:58.489Z,989.15
2019-03-10T10:46:04.009Z,989.13
2019-03-10T10:47:09.510Z,989.15
2019-03-10T10:48:15.028Z,989.17
2019-03-10T10:49:20.530Z,989.12
2019-03-10T10:50:26.042Z,989.05
2019-03-10T10:51:31.551Z,989.06
2019-03-10T10:52:37.071Z,989.11
2019-03-10T10:53:42.568Z,989.12
2019-03-10T10:54:48.097Z,989.21
2019-03-10T10:55:53.596Z,989.19
2019-03-10T10:56:59.103Z,989.07
2019-03-10T10:58:05.616Z,989.11
2019-03-10T10:59:10.120Z,989.06
2019-03-10T11:00:15.626Z,989.06
2019-03-10T11:01:21.145Z,989.09
2019-03-10T11:02:26.645Z,989.04
2019-03-10T11:03:32.157Z,988.92
2019-03-10T11:04:37.670Z,988.93
2019-03-10T11:05:43.177Z,989.00
2019-03-10T11:06:48.690Z,988.99
2019-03-10T11:07:54.194Z,988.94
2019-03-10T11:08:59.706Z,988.97
2019-03-10T11:10:05.214Z,989.00
2019-03-10T11:11:10.736Z,988.94
2019-03-10T11:12:16.246Z,988.84
2019-03-10T11:13:21.805Z,988.82
2019-03-10T11:14:27.261Z,988.80
2019-03-10T11:15:32.767Z,988.76
2019-03-10T11:16:38.279Z,988.73
2019-03-10T11:17:43.786Z,988.67
2019-03-10T11:18:49.301Z,988.73
2019-03-10T11:19:54.808Z,988.66
2019-03-10T11:21:00.326Z,988.63
2019-03-10T11:22:05.845Z,988.65
2019-03-10T11:23:11.345Z,988.67
2019-03-10T11:24:16.853Z,988.60
2019-03-10T11:25:22.366Z,988.47
2019-03-10T11:26:27.879Z,988.51
2019-03-10T11:27:33.386Z,988.52
2019-03-10T11:28:38.895Z,988.53
2019-03-10T11:29:44.419Z,988.45
2019-03-10T11:30:49.918Z,988.47
2019-03-10T11:31:55.432Z,988.47
2019-03-10T11:33:00.943Z,988.38
2019-03-10T11:34:06.454Z,988.33
2019-03-10T11:35:11.976Z,988.42
2019-03-10T11:36:17.475Z,988.37
2019-03-10T11:37:22.982Z,988.29
2019-03-10T11:38:28.508Z,988.26
2019-03-10T11:39:34.006Z,988.33
2019-03-10T11:40:39.516Z,988.26
2019-03-10T11:41:45.026Z,988.44
2019-03-10T11:42:50.546Z,988.25
2019-03-10T11:43:56.053Z,988.31
2019-03-10T11:45:01.570Z,988.26
2019-03-10T11:46:07.076Z,988.30
2019-03-10T11:47:12.591Z,988.27
2019-03-10T11:48:18.093Z,988.21
2019-03-10T11:49:23.609Z,988.33
2019-03-10T11:50:29.123Z,988.33
2019-03-10T11:51:34.642Z,988.29
2019-03-10T11:52:40.147Z,988.31
2019-03-10T11:53:45.652Z,988.44
2019-03-10T11:54:51.168Z,988.53
2019-03-10T11:55:56.674Z,988.40
2019-03-10T11:57:02.189Z,988.49
2019-03-10T11:58:07.695Z,988.40
2019-03-10T11:59:13.210Z,988.41
2019-03-10T12:00:18.710Z,988.31
2019-03-10T12:01:24.238Z,988.28
2019-03-10T12:02:29.742Z,988.39
2019-03-10T12:03:35.255Z,988.24
2019-03-10T12:04:40.765Z,988.30
2019-03-10T12:05:46.279Z,988.38
2019-03-10T12:06:51.782Z,988.37
2019-03-10T12:07:57.294Z,988.38
2019-03-10T12:09:02.809Z,988.47
2019-03-10T12:10:08.321Z,988.41
2019-03-10T12:11:13.833Z,988.43
2019-03-10T12:12:19.347Z,988.39
2019-03-10T12:13:24.845Z,988.31
2019-03-10T12:14:30.369Z,988.44
2019-03-10T12:15:35.873Z,988.34
2019-03-10T12:16:41.395Z,988.44
2019-03-10T12:17:46.891Z,988.32
2019-03-10T12:18:52.396Z,988.27
2019-03-10T12:19:57.918Z,988.43
2019-03-10T12:21:03.429Z,988.35
2019-03-10T12:22:08.941Z,988.40
2019-03-10T12:23:14.447Z,988.36
2019-03-10T12:24:19.963Z,988.33
2019-03-10T12:25:25.478Z,988.37
2019-03-10T12:26:30.985Z,988.06
2019-03-10T12:27:36.513Z,988.26
2019-03-10T12:28:42.005Z,988.43
2019-03-10T12:29:47.522Z,988.25
2019-03-10T12:30:53.020Z,988.21
2019-03-10T12:31:58.531Z,988.17
2019-03-10T12:33:04.047Z,988.23
2019-03-10T12:34:09.557Z,988.24
2019-03-10T12:35:15.066Z,988.21
2019-03-10T12:36:20.577Z,988.23
2019-03-10T12:37:26.085Z,988.22
2019-03-10T12:38:31.596Z,988.27
2019-03-10T12:39:37.106Z,988.19
2019-03-10T12:40:42.617Z,988.44
2019-03-10T12:41:58.091Z,988.38
2019-03-10T12:42:53.642Z,988.46
2019-03-10T12:43:59.166Z,988.41
2019-03-10T12:45:04.659Z,988.48
2019-03-10T12:46:10.177Z,988.49
2019-03-10T12:47:15.677Z,988.52
2019-03-10T12:48:21.188Z,988.43
2019-03-10T12:49:26.699Z,988.40
2019-03-10T12:50:32.213Z,988.44
2019-03-10T12:51:37.734Z,988.44
2019-03-10T12:52:43.232Z,988.37
2019-03-10T12:53:48.751Z,988.43
2019-03-10T12:54:54.251Z,988.42
2019-03-10T12:55:59.770Z,988.47
2019-03-10T12:57:05.281Z,988.38
2019-03-10T12:58:10.783Z,988.36
2019-03-10T12:59:16.301Z,988.33
2019-03-10T13:00:21.815Z,988.25
2019-03-10T13:01:27.310Z,988.38
2019-03-10T13:02:32.829Z,988.28
2019-03-10T13:03:38.428Z,988.33
2019-03-10T13:04:43.845Z,988.28
2019-03-10T13:05:49.363Z,988.32
2019-03-10T13:06:54.870Z,988.32
2019-03-10T13:08:00.384Z,988.38
2019-03-10T13:09:05.893Z,988.12
2019-03-10T13:10:12.687Z,988.39
2019-03-10T13:11:16.909Z,988.44
2019-03-10T13:12:22.412Z,988.49
2019-03-10T13:13:27.930Z,988.55
2019-03-10T13:14:33.446Z,988.48
2019-03-10T13:15:38.950Z,988.32
2019-03-10T13:16:44.463Z,988.40
2019-03-10T13:17:49.969Z,988.43
2019-03-10T13:18:55.485Z,988.37
2019-03-10T13:20:00.992Z,988.53
2019-03-10T13:21:06.503Z,988.59
2019-03-10T13:22:12.014Z,988.32
2019-03-10T13:23:17.529Z,988.51
2019-03-10T13:24:23.035Z,988.42
2019-03-10T13:25:28.555Z,988.37
2019-03-10T13:26:34.063Z,988.33
2019-03-10T13:27:39.572Z,988.25
2019-03-10T13:28:45.077Z,988.34
2019-03-10T13:29:50.577Z,988.51
2019-03-10T13:30:56.090Z,988.45
2019-03-10T13:32:01.607Z,988.58